Portada
METAR-TAF:

METAR-TAF

Aeropuertos :

Aeropuerto Internacional Josefa Camejo

Paraguaná, Venezuela

latitud: 11-47N, longitud: 070-09W, altitud: 23 m

METAR: falta

Hora: 12:50 (16:50 UTC)

Pronóstico

El informe se hizo hace 6 horas y 50 minutos, a las 10:00 UTC
Pronóstico válido del 15 a las 12 UTC al 16 a las 12 UTC
Viento 8 kt del este
Visibilidad 10 km o más
Cielo nuboso a una altura de 1300 ft
Evolucionando progresivamente
del 15 a las 14 UTC al 15 a las 18 UTC
Viento 6 kt del noreste
Nubes dispersas a una altura de 1600 ft

TAF: SVJC 151000Z 1512/1612 09008KT 9999 BKN013 TX35/19Z TN25/10Z BECMG 1514/1518 05006KT SCT016

Observaciones y pronósticos meteorológicos de más de 4000 aeropuertos (mensajes METAR y TAF).

Los puntos amarillos y rojos representan las estaciones disponibles.

Ponga el ratón en el punto deseado para ver el nombre de la estación.

Haga clic para ver las observaciones y los pronósticos meteorológicos.

Para cambiar el mapa : haga clic en los botones verdes con una cruz de color negro para hacer un zoom, en el botón verde con un guión para alejar o en las flechas verdes para mapas adyacentes.


METAR-TAF: